Goodwick, United Kingdom
Current Conditions -  °F | °C
As of 12:50 PM on Saturday 20 Dec 2014 (Local Time) from EGOP Reporting Station
Broken Clouds Broken Clouds  
Wind Chill: 41°   Ceiling: 3300
Heat Index: 48°   Visibility: 6mi
Dew Point: 41°   Wind: 21mph
Humidity: 76%   Direction: 290°WNW
Pressure: 30.39"   Gusts: NA
Location:  52°N, 5°W
Report Text: EGOP 201250Z AUTO 29018KT 9999 // BKN033/// 09/05 Q1029
Loading
Personal Weather Stations






























Interactive Weather Map New forecast layout! Learn more

10-Day Weather Forecast

Advertisements
Track Severe Weather on mobile